Time;durP1;ratioP1;P1;durP2;ratioP2;P2;SDS_P1;SDS_P2;PMS_P1;PMS_P2;Temp;Humidity;BMP_temperature;BMP_pressure;BME280_temperature;BME280_humidity;BME280_pressure;Samples;Min_cycle;Max_cycle;Signal;HPM_P1;HPM_P2
2023/02/13 00:00:44;;;;;;;22.52;10.00;;;11.10;82.00;;;;;;5032238;28;20508;-76
2023/02/13 00:03:50;;;;;;;15.23;9.15;;;;;;;;;;5032159;28;20042;-81
2023/02/13 00:06:54;;;;;;;16.13;9.27;;;11.10;82.40;;;;;;5032218;28;20054;-79
2023/02/13 00:09:58;;;;;;;21.13;10.27;;;11.00;82.70;;;;;;5031687;28;20048;-80
2023/02/13 00:13:02;;;;;;;16.73;9.00;;;10.00;81.50;;;;;;5019049;28;20044;-78
2023/02/13 00:16:06;;;;;;;19.88;9.38;;;11.10;82.00;;;;;;5030799;28;20048;-77
2023/02/13 00:19:11;;;;;;;15.85;9.77;;;;;;;;;;5031471;28;20040;-81
2023/02/13 00:22:18;;;;;;;21.48;9.15;;;11.10;82.50;;;;;;5032160;28;20053;-82
2023/02/13 00:25:21;;;;;;;14.15;8.60;;;11.10;82.40;;;;;;5031887;28;20055;-78
2023/02/13 00:28:26;;;;;;;18.90;9.50;;;11.10;82.60;;;;;;5031601;28;20056;-75
2023/02/13 00:31:30;;;;;;;16.65;8.75;;;11.60;82.70;;;;;;5031626;28;20041;-78
2023/02/13 00:34:35;;;;;;;13.35;9.15;;;;;;;;;;5030735;28;20048;-77
2023/02/13 00:37:40;;;;;;;15.20;8.82;;;10.90;82.60;;;;;;5031716;28;20029;-81
2023/02/13 00:40:44;;;;;;;19.27;10.02;;;;;;;;;;5031391;28;20045;-78
2023/02/13 00:43:49;;;;;;;17.85;9.77;;;11.00;82.80;;;;;;5031903;28;20045;-78
2023/02/13 00:46:53;;;;;;;19.15;9.23;;;10.80;83.00;;;;;;5030803;28;20045;-77
2023/02/13 00:49:57;;;;;;;18.58;9.98;;;12.50;83.70;;;;;;5030532;28;20056;-81
2023/02/13 00:53:01;;;;;;;14.77;8.43;;;11.00;81.90;;;;;;5030464;28;20033;-78
2023/02/13 00:56:06;;;;;;;16.98;8.73;;;11.10;81.10;;;;;;5031123;28;20049;-77
2023/02/13 00:59:10;;;;;;;18.08;8.15;;;;;;;;;;5031492;28;20040;-80
2023/02/13 01:02:14;;;;;;;24.77;10.93;;;;;;;;;;5032662;28;20049;-79
2023/02/13 01:05:19;;;;;;;19.63;11.68;;;;;;;;;;5030881;28;20380;-79
2023/02/13 01:08:27;;;;;;;18.05;10.48;;;11.60;83.20;;;;;;5032315;28;20053;-78
2023/02/13 01:11:31;;;;;;;19.95;10.02;;;10.90;83.20;;;;;;5032291;28;20052;-76
2023/02/13 01:14:37;;;;;;;15.02;8.40;;;10.80;82.40;;;;;;5033079;28;20044;-84
2023/02/13 01:17:42;;;;;;;18.30;9.77;;;10.80;83.10;;;;;;5033614;28;20040;-87
2023/02/13 01:20:55;;;;;;;15.90;7.82;;;;;;;;;;5033193;28;20388;-79
2023/02/13 01:24:03;;;;;;;16.52;8.65;;;10.80;81.00;;;;;;5033145;28;20503;-84
2023/02/13 01:27:07;;;;;;;14.90;8.00;;;10.70;82.10;;;;;;5032089;28;20039;-79
2023/02/13 01:30:13;;;;;;;14.02;7.97;;;10.80;82.60;;;;;;5032510;28;20064;-83
2023/02/13 01:33:17;;;;;;;21.50;10.60;;;10.70;82.90;;;;;;5031140;28;20040;-78
2023/02/13 01:36:23;;;;;;;15.98;9.40;;;10.70;83.00;;;;;;5032466;28;20048;-83
2023/02/13 01:39:27;;;;;;;16.10;8.95;;;10.70;83.10;;;;;;5031324;28;20400;-79
2023/02/13 01:42:33;;;;;;;18.75;9.05;;;10.60;83.10;;;;;;5031300;28;20049;-77
2023/02/13 01:45:37;;;;;;;15.57;9.20;;;10.00;82.60;;;;;;5019786;28;20041;-78
2023/02/13 01:48:42;;;;;;;13.27;8.60;;;10.50;82.90;;;;;;5031753;28;20052;-80
2023/02/13 01:51:49;;;;;;;17.70;9.30;;;;;;;;;;5032813;28;20044;-85
2023/02/13 01:54:55;;;;;;;20.25;9.93;;;10.60;83.00;;;;;;5034565;28;20505;-82
2023/02/13 01:58:07;;;;;;;16.13;9.10;;;10.60;83.20;;;;;;5030379;28;20045;-78
2023/02/13 02:01:11;;;;;;;18.65;9.50;;;10.40;83.00;;;;;;5031164;28;20531;-82
2023/02/13 02:04:23;;;;;;;15.88;10.07;;;10.60;83.20;;;;;;5031647;28;20420;-84
2023/02/13 02:07:29;;;;;;;17.45;10.30;;;10.60;82.90;;;;;;5044968;28;20044;-77
2023/02/13 02:10:39;;;;;;;17.70;9.48;;;10.80;81.20;;;;;;5036636;28;20536;-80
2023/02/13 02:13:45;;;;;;;19.50;9.55;;;10.60;82.20;;;;;;5029952;28;20530;-79
2023/02/13 02:16:49;;;;;;;15.43;10.27;;;;;;;;;;5029742;28;20048;-76
2023/02/13 02:20:02;;;;;;;17.70;10.13;;;11.10;83.60;;;;;;5031164;28;20041;-80
2023/02/13 02:23:34;;;;;;;18.98;10.48;;;;;;;;;;5030700;28;20050;-76
2023/02/13 02:27:07;;;;;;;17.45;9.50;;;10.60;83.30;;;;;;5032392;28;20033;-78
2023/02/13 02:30:25;;;;;;;16.45;10.48;;;10.50;83.40;;;;;;5039101;28;20032;-80
2023/02/13 02:33:32;;;;;;;16.20;9.82;;;10.40;83.70;;;;;;5044531;28;20040;-82
2023/02/13 02:36:50;;;;;;;18.30;10.75;;;10.50;83.60;;;;;;5044748;28;20507;-82
2023/02/13 02:40:28;;;;;;;16.58;10.20;;;10.40;83.80;;;;;;5045394;28;20028;-81
2023/02/13 02:44:00;;;;;;;15.98;10.00;;;10.40;83.80;;;;;;5034054;28;20043;-83
2023/02/13 02:51:11;;;;;;;21.23;10.90;;;10.30;83.80;;;;;;5044755;28;20052;-78
2023/02/13 03:23:24;;;;;;;18.20;8.82;;;10.30;82.80;;;;;;5034324;28;20151;-80
2023/02/13 03:27:00;;;;;;;19.02;9.48;;;10.20;82.70;;;;;;5034174;28;20052;-80
2023/02/13 03:30:16;;;;;;;17.33;9.75;;;10.20;82.70;;;;;;5033859;28;20076;-78
2023/02/13 03:33:35;;;;;;;18.23;10.63;;;10.40;82.60;;;;;;5035494;28;20131;-80
2023/02/13 03:40:15;;;;;;;15.73;9.68;;;10.20;82.00;;;;;;5033423;28;20409;-80
2023/02/13 03:43:20;;;;;;;16.83;8.55;;;10.20;82.20;;;;;;5034176;28;20049;-79
2023/02/13 03:46:31;;;;;;;22.42;9.27;;;10.10;82.20;;;;;;5033237;28;20048;-80
2023/02/13 03:50:05;;;;;;;17.30;10.15;;;10.10;82.30;;;;;;5033687;28;20056;-79
2023/02/13 03:53:11;;;;;;;13.25;7.68;;;9.80;82.10;;;;;;5032451;28;20053;-77
2023/02/13 03:59:43;;;;;;;11.82;7.43;;;10.00;80.80;;;;;;5033686;28;20191;-79
2023/02/13 04:03:13;;;;;;;16.67;8.55;;;11.10;81.50;;;;;;5032759;28;20523;-78
2023/02/13 04:06:26;;;;;;;16.30;8.32;;;10.20;81.20;;;;;;5033341;28;20041;-79
2023/02/13 04:09:31;;;;;;;13.57;8.25;;;;;;;;;;5032603;28;20064;-85
2023/02/13 04:13:01;;;;;;;15.20;7.30;;;10.30;80.80;;;;;;5032868;28;20050;-78
2023/02/13 04:16:28;;;;;;;9.55;6.53;;;10.60;79.30;;;;;;5034108;28;20510;-82
2023/02/13 04:19:34;;;;;;;15.23;7.53;;;10.30;79.50;;;;;;5036508;28;20126;-83
2023/02/13 04:22:44;;;;;;;13.25;7.53;;;10.30;79.90;;;;;;5034146;28;20049;-83
2023/02/13 04:25:52;;;;;;;12.60;7.65;;;9.00;79.40;;;;;;5032540;28;20389;-80
2023/02/13 04:28:56;;;;;;;13.93;7.78;;;8.90;79.50;;;;;;5033227;28;20048;-80
2023/02/13 04:32:00;;;;;;;12.43;7.85;;;10.20;80.30;;;;;;5033161;28;20397;-81
2023/02/13 04:35:04;;;;;;;11.93;7.45;;;;;;;;;;5032630;28;20396;-82
2023/02/13 04:38:08;;;;;;;11.35;7.05;;;;;;;;;;5032931;28;20037;-82
2023/02/13 04:41:13;;;;;;;10.95;7.03;;;;;;;;;;5033307;28;20393;-83
2023/02/13 04:44:17;;;;;;;17.50;7.93;;;10.20;80.60;;;;;;5033005;28;20037;-82
2023/02/13 04:47:21;;;;;;;14.63;8.43;;;11.40;81.60;;;;;;5032773;28;20598;-84
2023/02/13 04:50:25;;;;;;;13.75;7.78;;;10.00;80.80;;;;;;5033314;28;20053;-84
2023/02/13 04:53:29;;;;;;;12.77;7.72;;;;;;;;;;5033137;28;20041;-82
2023/02/13 04:56:34;;;;;;;14.68;7.28;;;;;;;;;;5032486;28;20041;-84
2023/02/13 04:59:38;;;;;;;13.18;6.63;;;10.00;79.90;;;;;;5031194;28;20481;-81
2023/02/13 05:02:42;;;;;;;14.77;7.40;;;10.00;79.50;;;;;;5031682;28;20068;-80
2023/02/13 05:05:47;;;;;;;11.38;6.85;;;;;;;;;;5031848;28;20504;-81
2023/02/13 05:08:51;;;;;;;13.32;5.75;;;10.10;78.40;;;;;;5031705;28;20042;-78
2023/02/13 05:11:55;;;;;;;10.27;5.43;;;10.10;77.60;;;;;;5031749;28;20060;-81
2023/02/13 05:14:59;;;;;;;8.60;5.38;;;10.20;77.10;;;;;;5033841;28;20044;-80
2023/02/13 05:18:07;;;;;;;11.73;5.72;;;10.10;77.20;;;;;;5034541;28;20048;-82
2023/02/13 05:24:37;;;;;;;12.48;6.47;;;11.90;78.60;;;;;;5031059;28;20049;-83
2023/02/13 05:27:41;;;;;;;8.93;5.07;;;10.20;77.40;;;;;;5031540;28;20053;-83
2023/02/13 05:30:46;;;;;;;13.10;6.20;;;;;;;;;;5031741;28;20052;-83
2023/02/13 05:33:50;;;;;;;13.85;5.97;;;10.20;78.00;;;;;;5032062;28;20031;-84
2023/02/13 05:36:54;;;;;;;12.48;7.07;;;;;;;;;;5031974;28;20040;-84
2023/02/13 05:39:58;;;;;;;13.02;7.05;;;10.10;78.90;;;;;;5032828;28;20473;-82
2023/02/13 05:43:02;;;;;;;12.45;7.65;;;;;;;;;;5033377;28;20052;-83
2023/02/13 05:46:09;;;;;;;20.83;7.88;;;9.80;80.00;;;;;;5033008;28;20033;-83
2023/02/13 05:49:14;;;;;;;25.05;8.95;;;;;;;;;;5033628;28;20060;-82
2023/02/13 05:52:17;;;;;;;10.98;7.10;;;10.60;80.30;;;;;;5036921;28;20030;-84
2023/02/13 05:55:22;;;;;;;10.35;6.30;;;9.70;79.60;;;;;;5036937;28;20033;-83
2023/02/13 05:58:26;;;;;;;15.95;7.38;;;;;;;;;;5037111;28;20040;-83
2023/02/13 06:01:31;;;;;;;13.25;7.68;;;9.70;80.00;;;;;;5035994;28;20042;-85
2023/02/13 06:04:35;;;;;;;16.52;8.35;;;10.50;80.70;;;;;;5034048;28;20449;-85
2023/02/13 06:07:39;;;;;;;15.55;8.38;;;;;;;;;;5036441;28;20044;-84
2023/02/13 06:10:45;;;;;;;23.00;9.77;;;10.10;80.80;;;;;;5037412;28;20046;-82
2023/02/13 06:13:49;;;;;;;20.83;10.27;;;10.70;81.50;;;;;;5022586;28;20405;-84
2023/02/13 06:16:53;;;;;;;25.27;11.57;;;10.40;82.00;;;;;;5031738;28;20052;-76
2023/02/13 06:19:58;;;;;;;20.63;9.60;;;;;;;;;;5032653;28;20624;-72
2023/02/13 06:23:02;;;;;;;16.40;9.18;;;9.90;81.60;;;;;;5031404;28;20045;-76
2023/02/13 06:26:07;;;;;;;19.00;8.32;;;10.00;80.90;;;;;;5031707;28;20044;-77
2023/02/13 06:29:14;;;;;;;23.42;9.18;;;;;;;;;;5030940;28;20060;-74
2023/02/13 06:32:19;;;;;;;29.85;10.77;;;;;;;;;;5032522;28;20048;-76
2023/02/13 06:35:23;;;;;;;36.53;10.45;;;;;;;;;;5033218;28;20421;-76
2023/02/13 06:38:27;;;;;;;35.80;14.40;;;9.80;81.60;;;;;;5032041;28;20041;-75
2023/02/13 06:41:31;;;;;;;34.10;10.52;;;10.10;81.30;;;;;;5032304;28;20048;-77
2023/02/13 06:44:36;;;;;;;42.75;9.52;;;;;;;;;;5030797;28;20049;-76
2023/02/13 06:47:45;;;;;;;25.88;10.20;;;10.20;81.00;;;;;;5033417;28;20480;-76
2023/02/13 06:50:50;;;;;;;26.40;11.57;;;10.20;81.30;;;;;;5031008;28;20056;-78
2023/02/13 06:53:55;;;;;;;33.85;11.40;;;;;;;;;;5031210;28;20076;-76
2023/02/13 06:56:59;;;;;;;36.47;10.68;;;10.50;81.70;;;;;;5031590;28;20048;-78
2023/02/13 07:00:04;;;;;;;26.65;11.30;;;;;;;;;;5029894;28;20385;-76
2023/02/13 07:03:09;;;;;;;31.77;13.00;;;10.60;79.80;;;;;;5029396;28;20053;-77
2023/02/13 07:06:18;;;;;;;33.38;11.63;;;10.90;79.60;;;;;;5030688;28;20388;-78
2023/02/13 07:09:22;;;;;;;29.70;11.35;;;11.50;79.60;;;;;;5031853;28;20061;-76
2023/02/13 07:12:28;;;;;;;24.63;11.50;;;11.60;80.00;;;;;;5030301;28;20057;-75
2023/02/13 07:15:36;;;;;;;23.58;11.95;;;11.40;78.70;;;;;;5032512;28;20048;-76
2023/02/13 07:18:40;;;;;;;21.48;10.27;;;11.60;78.50;;;;;;5031716;28;20044;-76
2023/02/13 07:21:44;;;;;;;18.92;9.15;;;12.00;77.50;;;;;;5031528;28;20052;-78
2023/02/13 07:24:48;;;;;;;20.10;8.10;;;;;;;;;;5033457;28;20087;-78
2023/02/13 07:27:53;;;;;;;19.55;8.35;;;12.40;75.00;;;;;;5033906;28;20045;-77
2023/02/13 07:30:57;;;;;;;17.80;8.18;;;;;;;;;;5036110;28;20057;-82
2023/02/13 07:34:02;;;;;;;11.75;6.82;;;;;;;;;;5035309;28;20048;-82
2023/02/13 07:37:06;;;;;;;13.65;7.68;;;;;;;;;;5034148;28;20041;-79
2023/02/13 07:40:11;;;;;;;8.43;6.10;;;;;;;;;;5035828;28;20039;-86
2023/02/13 07:43:15;;;;;;;10.95;6.18;;;13.00;71.50;;;;;;5037438;28;20037;-82
2023/02/13 07:46:20;;;;;;;9.15;5.70;;;;;;;;;;5033290;28;20041;-77
2023/02/13 07:49:25;;;;;;;14.63;6.28;;;13.40;69.10;;;;;;5034050;28;20049;-78
2023/02/13 07:52:37;;;;;;;14.95;6.30;;;;;;;;;;5036274;28;20041;-82
2023/02/13 07:55:41;;;;;;;15.88;5.93;;;11.90;67.60;;;;;;5038532;28;20374;-86
2023/02/13 07:58:45;;;;;;;10.20;5.20;;;13.50;68.60;;;;;;5037889;28;20048;-85
2023/02/13 08:01:50;;;;;;;12.13;5.55;;;13.80;68.20;;;;;;5039304;28;20044;-83
2023/02/13 08:04:54;;;;;;;10.50;6.00;;;13.00;67.80;;;;;;5027607;28;20049;-79
2023/02/13 08:07:58;;;;;;;15.63;7.95;;;13.00;68.00;;;;;;5034908;28;20044;-80
2023/02/13 08:14:28;;;;;;;19.10;8.07;;;14.20;68.40;;;;;;5036744;28;20041;-76
2023/02/13 08:17:32;;;;;;;14.00;7.18;;;12.70;67.30;;;;;;5040674;28;20539;-77
2023/02/13 08:20:37;;;;;;;15.73;6.85;;;14.40;68.40;;;;;;5034037;28;20405;-80
2023/02/13 08:23:41;;;;;;;16.23;7.40;;;14.50;68.80;;;;;;5034610;28;20114;-79
2023/02/13 08:26:44;;;;;;;10.55;5.75;;;14.60;68.60;;;;;;5034143;28;20068;-77
2023/02/13 08:29:49;;;;;;;7.68;4.97;;;14.70;66.10;;;;;;5036186;28;20060;-83
2023/02/13 08:32:54;;;;;;;9.93;5.10;;;14.70;66.50;;;;;;5039830;28;20499;-82
2023/02/13 08:36:02;;;;;;;12.38;6.10;;;14.80;65.60;;;;;;5037467;28;20044;-78
2023/02/13 08:39:08;;;;;;;8.82;4.82;;;14.70;65.20;;;;;;5043923;28;20041;-84
2023/02/13 08:42:13;;;;;;;15.27;6.00;;;14.80;65.60;;;;;;5035543;28;20547;-74
2023/02/13 08:45:17;;;;;;;13.80;6.00;;;14.80;66.30;;;;;;5041026;28;20044;-82
2023/02/13 08:48:21;;;;;;;13.52;6.28;;;14.90;66.50;;;;;;5037785;28;20056;-73
2023/02/13 08:51:26;;;;;;;13.73;7.30;;;15.00;66.40;;;;;;5040046;28;20045;-81
2023/02/13 08:54:34;;;;;;;12.48;6.70;;;15.10;66.00;;;;;;5041711;28;20048;-78
2023/02/13 08:57:38;;;;;;;8.27;5.20;;;15.20;65.80;;;;;;5043697;28;20504;-80
2023/02/13 09:00:43;;;;;;;15.43;5.30;;;15.30;64.30;;;;;;5038527;28;20041;-79
2023/02/13 09:03:47;;;;;;;12.20;5.00;;;15.30;63.60;;;;;;5034316;28;20590;-71
2023/02/13 09:06:54;;;;;;;12.98;5.00;;;15.30;62.40;;;;;;5031659;28;20049;-72
2023/02/13 09:09:59;;;;;;;8.25;4.70;;;15.30;62.80;;;;;;5030492;28;20060;-71
2023/02/13 09:13:03;;;;;;;5.80;4.68;;;15.40;63.10;;;;;;5030164;28;20061;-69
2023/02/13 09:16:09;;;;;;;9.18;5.05;;;15.40;62.90;;;;;;5030761;28;20048;-69
2023/02/13 09:19:13;;;;;;;9.77;5.30;;;15.50;63.10;;;;;;5031985;28;20040;-73
2023/02/13 09:22:18;;;;;;;11.32;5.10;;;15.40;62.60;;;;;;5043553;28;20048;-72
2023/02/13 09:25:25;;;;;;;10.00;4.93;;;15.50;62.00;;;;;;5035127;28;20056;-72
2023/02/13 09:28:30;;;;;;;10.82;4.88;;;15.50;61.80;;;;;;5031928;28;20068;-76
2023/02/13 09:31:37;;;;;;;10.13;5.20;;;15.50;62.50;;;;;;5035540;28;20126;-77
2023/02/13 09:34:42;;;;;;;8.15;5.10;;;15.60;61.50;;;;;;5035464;28;20044;-75
2023/02/13 09:37:46;;;;;;;10.55;5.43;;;15.60;60.80;;;;;;5031709;28;20036;-75
2023/02/13 09:40:58;;;;;;;9.30;4.97;;;15.60;60.30;;;;;;5034563;28;20392;-73
2023/02/13 09:44:42;;;;;;;10.98;5.53;;;15.60;61.30;;;;;;5031488;28;20053;-71
2023/02/13 09:47:47;;;;;;;15.27;5.68;;;15.70;61.60;;;;;;5034604;28;20048;-82
2023/02/13 09:51:26;;;;;;;7.65;4.80;;;15.80;61.40;;;;;;5037471;28;20056;-79
2023/02/13 09:54:34;;;;;;;9.00;4.97;;;16.00;70.20;;;;;;5017409;28;20405;-71
2023/02/13 09:58:03;;;;;;;7.45;4.80;;;16.20;61.50;;;;;;5034547;28;20048;-81
2023/02/13 10:01:37;;;;;;;8.15;5.10;;;16.30;60.90;;;;;;5035326;28;20123;-75
2023/02/13 10:05:17;;;;;;;6.25;4.35;;;16.30;58.70;;;;;;5031673;28;20484;-69
2023/02/13 10:08:36;;;;;;;7.68;4.68;;;15.50;56.60;;;;;;5031851;28;20212;-73
2023/02/13 10:11:51;;;;;;;9.75;5.30;;;15.40;56.50;;;;;;5031206;28;20048;-67
2023/02/13 10:15:14;;;;;;;15.45;5.57;;;15.40;56.80;;;;;;5029257;28;20532;-71
2023/02/13 10:18:30;;;;;;;18.60;6.30;;;15.30;57.20;;;;;;5032106;28;20045;-71
2023/02/13 10:21:49;;;;;;;14.70;4.70;;;15.20;58.20;;;;;;5024048;28;20044;-77
2023/02/13 10:25:00;;;;;;;6.93;4.78;;;15.50;56.80;;;;;;5035106;28;20044;-70
2023/02/13 10:28:11;;;;;;;9.23;5.03;;;15.50;56.20;;;;;;5030290;28;20053;-71
2023/02/13 10:31:21;;;;;;;10.27;4.80;;;15.40;56.20;;;;;;5030701;28;20060;-75
2023/02/13 10:34:38;;;;;;;15.02;5.30;;;15.50;55.60;;;;;;5032202;28;20503;-75
2023/02/13 10:37:43;;;;;;;8.57;5.57;;;14.90;56.40;;;;;;5028977;28;20048;-72
2023/02/13 10:41:19;;;;;;;7.25;4.70;;;15.40;56.60;;;;;;5031132;28;20041;-73
2023/02/13 10:44:42;;;;;;;6.93;4.90;;;15.30;55.80;;;;;;5032863;28;20594;-74
2023/02/13 10:48:11;;;;;;;8.07;4.65;;;15.30;56.20;;;;;;5034304;28;20044;-74
2023/02/13 10:51:43;;;;;;;9.98;4.78;;;16.60;56.50;;;;;;5029651;28;20045;-74
2023/02/13 10:55:00;;;;;;;9.05;4.28;;;15.50;55.60;;;;;;5029477;28;20041;-73
2023/02/13 10:58:10;;;;;;;9.43;4.97;;;15.60;55.70;;;;;;5029740;28;20052;-74
2023/02/13 11:01:41;;;;;;;8.40;4.93;;;15.70;55.80;;;;;;5031469;28;20037;-74
2023/02/13 11:04:45;;;;;;;;;;;16.10;55.40;;;;;;5031454;28;20044;-73
2023/02/13 11:07:50;;;;;;;8.35;5.40;;;16.00;53.60;;;;;;5032240;28;19916;-73
2023/02/13 11:10:54;;;;;;;9.15;4.80;;;15.90;54.10;;;;;;5029358;28;20240;-75
2023/02/13 11:14:16;;;;;;;13.18;6.13;;;15.90;55.10;;;;;;5029398;28;20037;-74
2023/02/13 11:17:25;;;;;;;9.60;5.15;;;16.00;55.70;;;;;;5030068;28;20045;-74
2023/02/13 11:20:37;;;;;;;9.55;6.32;;;15.90;55.30;;;;;;5029772;28;20040;-73
2023/02/13 11:23:48;;;;;;;15.82;6.15;;;16.00;57.00;;;;;;5030810;28;20044;-74
2023/02/13 11:27:12;;;;;;;12.85;5.43;;;15.70;57.30;;;;;;5030715;28;20037;-72
2023/02/13 11:30:22;;;;;;;13.65;6.20;;;15.70;56.00;;;;;;5030156;28;20048;-73
2023/02/13 11:33:27;;;;;;;9.10;5.63;;;15.80;56.30;;;;;;5029402;28;20512;-73
2023/02/13 11:36:33;;;;;;;12.23;6.32;;;15.60;56.90;;;;;;5029677;28;20392;-73
2023/02/13 11:39:40;;;;;;;13.75;6.68;;;15.50;56.60;;;;;;5029997;28;20048;-73
2023/02/13 11:42:48;;;;;;;11.73;5.20;;;15.50;56.70;;;;;;5029735;28;20052;-73
2023/02/13 11:46:01;;;;;;;10.00;5.32;;;15.40;57.90;;;;;;5030352;28;20049;-74
2023/02/13 11:49:06;;;;;;;8.00;5.85;;;15.40;57.90;;;;;;5028719;28;20056;-72
2023/02/13 11:52:27;;;;;;;7.70;5.38;;;13.90;56.10;;;;;;5030061;28;20053;-74
2023/02/13 11:55:37;;;;;;;10.27;5.38;;;15.30;57.30;;;;;;5028693;28;20033;-72
2023/02/13 11:58:45;;;;;;;15.55;5.72;;;15.40;56.50;;;;;;5030570;28;20053;-72
2023/02/13 12:02:20;;;;;;;9.30;6.38;;;15.60;56.80;;;;;;5029666;28;20053;-75
2023/02/13 12:05:28;;;;;;;14.90;5.05;;;15.40;56.60;;;;;;5030950;28;20036;-76
2023/02/13 12:08:35;;;;;;;10.00;5.20;;;15.50;57.20;;;;;;5030212;28;20056;-73
2023/02/13 12:11:45;;;;;;;10.13;5.25;;;15.40;56.60;;;;;;5029953;28;20412;-73
2023/02/13 12:14:49;;;;;;;11.45;4.53;;;15.40;57.20;;;;;;5035238;28;20143;-81
2023/02/13 12:18:19;;;;;;;7.32;4.90;;;15.50;57.00;;;;;;5035520;28;20056;-80
2023/02/13 12:21:37;;;;;;;7.07;5.00;;;15.60;57.00;;;;;;5043958;28;20051;-76
2023/02/13 12:25:08;;;;;;;9.50;4.78;;;15.70;57.20;;;;;;5033320;28;20065;-78
2023/02/13 12:28:27;;;;;;;12.15;4.80;;;15.70;56.10;;;;;;5040856;28;20054;-80
2023/02/13 12:31:52;;;;;;;9.75;5.25;;;15.60;57.00;;;;;;5040275;28;20161;-78
2023/02/13 12:35:15;;;;;;;10.70;5.53;;;15.70;56.70;;;;;;5037798;28;20051;-74
2023/02/13 12:38:41;;;;;;;8.70;4.93;;;15.70;55.60;;;;;;5034199;28;20045;-76
2023/02/13 12:42:03;;;;;;;9.55;4.80;;;15.60;55.60;;;;;;5037024;28;20041;-77
2023/02/13 12:45:38;;;;;;;9.57;5.63;;;15.60;56.20;;;;;;5036734;28;20037;-76
2023/02/13 12:49:15;;;;;;;7.57;5.57;;;15.70;56.80;;;;;;5038144;28;20045;-73
2023/02/13 12:52:22;;;;;;;9.13;5.53;;;15.80;55.60;;;;;;5039751;28;20393;-77
2023/02/13 12:55:35;;;;;;;8.45;4.90;;;15.70;55.80;;;;;;5032299;28;20433;-74
2023/02/13 12:58:51;;;;;;;8.50;5.00;;;17.80;55.70;;;;;;5031553;28;20044;-72
2023/02/13 13:02:28;;;;;;;11.50;5.00;;;15.60;55.10;;;;;;5033825;28;20052;-76
2023/02/13 13:06:11;;;;;;;7.38;4.63;;;15.70;55.90;;;;;;5045923;28;20516;-76
2023/02/13 13:09:43;;;;;;;8.55;4.88;;;15.70;55.60;;;;;;5039647;28;20118;-76
2023/02/13 13:12:50;;;;;;;6.90;5.00;;;15.60;55.70;;;;;;5034757;28;20132;-73
2023/02/13 13:16:30;;;;;;;11.75;4.60;;;15.60;55.50;;;;;;5036080;28;20048;-73
2023/02/13 13:19:49;;;;;;;10.15;4.93;;;15.50;55.50;;;;;;5034886;28;20045;-77
2023/02/13 13:22:59;;;;;;;10.23;4.82;;;15.50;55.80;;;;;;5031950;28;20041;-75
2023/02/13 13:26:35;;;;;;;11.67;4.43;;;15.50;55.60;;;;;;5031844;28;20053;-76
2023/02/13 13:30:01;;;;;;;8.43;4.53;;;15.60;56.00;;;;;;5031615;28;20048;-76
2023/02/13 13:33:18;;;;;;;6.78;4.55;;;15.60;55.00;;;;;;5034841;28;20048;-75
2023/02/13 13:36:32;;;;;;;11.98;4.75;;;15.50;55.10;;;;;;5031899;28;20048;-75
2023/02/13 13:39:49;;;;;;;8.15;5.10;;;15.50;55.40;;;;;;5033380;28;20052;-74
2023/02/13 13:43:05;;;;;;;5.15;4.40;;;15.50;54.80;;;;;;5031731;28;20052;-75
2023/02/13 13:46:32;;;;;;;7.28;3.97;;;15.40;54.80;;;;;;5032845;28;20553;-74
2023/02/13 13:49:42;;;;;;;6.30;3.95;;;15.50;55.20;;;;;;5029805;28;20106;-74
2023/02/13 13:53:19;;;;;;;8.18;4.65;;;15.30;55.10;;;;;;5031962;28;20400;-75
2023/02/13 13:56:23;;;;;;;8.43;5.50;;;15.30;54.90;;;;;;5031924;28;20044;-72
2023/02/13 13:59:37;;;;;;;8.40;4.78;;;15.30;55.10;;;;;;5032188;28;20064;-75
2023/02/13 14:02:49;;;;;;;7.25;4.53;;;15.30;55.10;;;;;;5031640;28;20052;-73
2023/02/13 14:06:04;;;;;;;;;;;15.30;55.60;;;;;;5021146;28;20040;-74
2023/02/13 14:09:37;;;;;;;9.57;5.55;;;15.30;55.10;;;;;;5035068;28;19909;-74
2023/02/13 14:12:49;;;;;;;16.00;7.75;;;15.30;54.50;;;;;;5033414;28;20053;-76
2023/02/13 14:15:53;;;;;;;9.32;5.38;;;15.30;55.10;;;;;;5031522;28;20057;-75
2023/02/13 14:18:59;;;;;;;10.15;5.63;;;15.30;55.20;;;;;;5031370;28;20151;-75
2023/02/13 14:22:34;;;;;;;13.27;4.90;;;15.40;54.80;;;;;;5033376;28;20056;-74
2023/02/13 14:25:38;;;;;;;8.85;4.70;;;15.30;55.10;;;;;;5033168;28;20048;-76
2023/02/13 14:28:55;;;;;;;8.90;4.60;;;15.30;55.30;;;;;;5031058;28;20068;-73
2023/02/13 14:32:36;;;;;;;9.05;5.35;;;15.20;54.70;;;;;;5032203;28;20052;-75
2023/02/13 14:35:41;;;;;;;7.60;5.53;;;15.20;55.90;;;;;;5031689;28;20048;-72
2023/02/13 14:38:57;;;;;;;9.60;4.53;;;15.20;56.30;;;;;;5031428;28;20464;-72
2023/02/13 14:42:21;;;;;;;12.85;4.60;;;15.10;55.90;;;;;;5030355;28;20041;-73
2023/02/13 14:45:31;;;;;;;7.35;5.10;;;15.10;56.00;;;;;;5030002;28;20049;-73
2023/02/13 14:49:00;;;;;;;10.38;4.57;;;15.10;56.40;;;;;;5030635;28;20052;-73
2023/02/13 14:52:14;;;;;;;10.40;4.47;;;15.10;55.40;;;;;;5030284;28;20057;-72
2023/02/13 14:55:39;;;;;;;14.63;4.68;;;16.10;56.80;;;;;;5031283;28;20045;-72
2023/02/13 14:59:20;;;;;;;7.53;4.93;;;15.00;56.20;;;;;;5032320;28;20052;-74
2023/02/13 15:02:28;;;;;;;13.93;5.45;;;15.10;55.90;;;;;;5030712;28;20057;-71
2023/02/13 15:05:34;;;;;;;16.45;5.38;;;15.00;55.30;;;;;;5031413;28;20052;-73
2023/02/13 15:08:47;;;;;;;16.10;5.68;;;15.00;55.50;;;;;;5029998;28;20499;-72
2023/02/13 15:11:51;;;;;;;16.73;4.82;;;15.00;55.40;;;;;;5029399;28;20068;-70
2023/02/13 15:14:56;;;;;;;11.82;5.00;;;15.00;55.50;;;;;;5028589;28;20519;-72
2023/02/13 15:18:06;;;;;;;9.50;5.55;;;15.00;56.00;;;;;;5029115;28;20048;-74
2023/02/13 15:21:17;;;;;;;13.05;6.55;;;15.00;56.60;;;;;;5029199;28;20126;-71
2023/02/13 15:24:23;;;;;;;17.02;5.95;;;14.90;55.50;;;;;;5028842;28;20043;-73
2023/02/13 15:27:34;;;;;;;8.48;4.85;;;14.90;56.10;;;;;;5031302;28;20045;-73
2023/02/13 15:30:38;;;;;;;9.52;5.85;;;15.00;56.40;;;;;;5027618;28;20060;-74
2023/02/13 15:33:45;;;;;;;12.93;5.72;;;14.60;55.90;;;;;;5029799;28;20052;-74
2023/02/13 15:36:50;;;;;;;6.22;5.05;;;14.70;56.40;;;;;;5028600;28;20043;-75
2023/02/13 15:39:54;;;;;;;11.93;5.30;;;14.70;56.80;;;;;;5027978;28;20040;-75
2023/02/13 15:43:00;;;;;;;11.88;5.32;;;14.70;57.30;;;;;;5030510;28;20045;-69
2023/02/13 15:46:19;;;;;;;13.32;6.25;;;14.60;57.30;;;;;;5028129;28;20511;-71
2023/02/13 15:49:25;;;;;;;18.33;7.50;;;14.60;57.90;;;;;;5028651;28;20037;-74
2023/02/13 15:52:33;;;;;;;12.55;7.90;;;14.70;58.00;;;;;;5030243;28;20056;-76
2023/02/13 15:55:38;;;;;;;11.68;5.80;;;14.50;57.60;;;;;;5028723;28;20060;-74
2023/02/13 15:58:42;;;;;;;10.48;6.35;;;14.60;57.80;;;;;;5031228;28;20053;-71
2023/02/13 16:01:47;;;;;;;17.65;8.52;;;14.50;57.80;;;;;;5028666;28;20499;-75
2023/02/13 16:04:53;;;;;;;17.95;7.50;;;14.50;58.30;;;;;;5031004;28;20056;-73
2023/02/13 16:08:00;;;;;;;18.65;10.27;;;14.50;57.80;;;;;;5029714;28;20082;-72
2023/02/13 16:11:23;;;;;;;14.77;7.43;;;14.50;57.50;;;;;;5029057;28;20060;-71
2023/02/13 16:14:30;;;;;;;15.98;7.57;;;13.40;57.40;;;;;;5035265;28;20038;-74
2023/02/13 16:17:38;;;;;;;13.25;9.23;;;13.20;58.00;;;;;;5033149;28;20503;-76
2023/02/13 16:20:42;;;;;;;18.17;8.15;;;14.30;58.90;;;;;;5031214;28;20515;-73
2023/02/13 16:23:47;;;;;;;15.82;8.52;;;14.20;59.10;;;;;;5031589;28;20500;-74
2023/02/13 16:26:52;;;;;;;15.48;8.52;;;14.20;59.30;;;;;;5032547;28;20048;-72
2023/02/13 16:29:59;;;;;;;16.77;9.40;;;14.10;59.60;;;;;;5031664;28;20053;-72
2023/02/13 16:33:15;;;;;;;25.20;8.18;;;16.50;61.30;;;;;;5031534;28;20163;-72
2023/02/13 16:36:27;;;;;;;29.73;14.40;;;13.90;60.10;;;;;;5030088;28;20056;-72
2023/02/13 16:39:32;;;;;;;16.30;9.77;;;14.00;60.00;;;;;;5031439;28;20496;-73
2023/02/13 16:42:36;;;;;;;19.65;10.73;;;14.30;60.60;;;;;;5035574;28;20111;-77
2023/02/13 16:45:41;;;;;;;18.20;9.73;;;;;;;;;;5031540;28;20044;-75
2023/02/13 16:49:00;;;;;;;18.42;10.80;;;14.60;60.80;;;;;;5030882;28;20046;-71
2023/02/13 16:52:15;;;;;;;17.52;10.75;;;13.70;60.70;;;;;;5033254;28;20405;-76
2023/02/13 16:55:20;;;;;;;22.63;14.05;;;13.60;60.80;;;;;;5033110;28;20040;-74
2023/02/13 16:58:28;;;;;;;26.52;14.20;;;13.60;61.10;;;;;;5034108;28;20044;-74
2023/02/13 17:01:37;;;;;;;20.58;11.73;;;;;;;;;;5030319;28;20503;-71
2023/02/13 17:04:43;;;;;;;23.85;13.40;;;13.50;61.20;;;;;;5030663;28;20508;-74
2023/02/13 17:07:50;;;;;;;20.75;11.95;;;13.50;61.20;;;;;;5030559;28;20048;-71
2023/02/13 17:11:05;;;;;;;37.97;14.70;;;13.50;61.60;;;;;;5029789;28;20064;-72
2023/02/13 17:14:09;;;;;;;20.20;10.50;;;;;;;;;;5028912;28;20657;-72
2023/02/13 17:17:17;;;;;;;33.58;13.63;;;13.40;61.80;;;;;;5029772;28;20056;-71
2023/02/13 17:20:26;;;;;;;28.13;14.48;;;14.80;62.70;;;;;;5030253;28;20044;-72
2023/02/13 17:23:31;;;;;;;30.38;13.57;;;12.40;61.70;;;;;;5029053;28;20488;-72
2023/02/13 17:26:35;;;;;;;22.42;11.55;;;;;;;;;;5029694;28;20047;-71